createdAt,value
2023-12-30T00:01:05.746Z,13.33
2023-12-30T00:02:59.212Z,13.29
2023-12-30T00:04:50.906Z,13.25
2023-12-30T00:06:42.172Z,13.22
2023-12-30T00:08:33.978Z,13.27
2023-12-30T00:10:25.378Z,13.23
2023-12-30T00:12:16.756Z,13.28
2023-12-30T00:14:08.454Z,13.26
2023-12-30T00:16:00.531Z,13.26
2023-12-30T00:17:51.896Z,13.26
2023-12-30T00:19:46.309Z,13.27
2023-12-30T00:21:37.888Z,13.28
2023-12-30T00:23:34.693Z,13.19
2023-12-30T00:25:31.963Z,13.21
2023-12-30T00:27:23.372Z,13.21
2023-12-30T00:29:14.870Z,13.15
2023-12-30T00:31:06.578Z,13.09
2023-12-30T00:32:58.253Z,13.03
2023-12-30T00:34:50.869Z,13.01
2023-12-30T00:36:45.133Z,12.92
2023-12-30T00:38:36.373Z,12.88
2023-12-30T00:40:28.063Z,12.85
2023-12-30T00:42:19.706Z,12.89
2023-12-30T00:44:11.950Z,12.83
2023-12-30T00:46:03.709Z,12.86
2023-12-30T00:47:55.456Z,12.84
2023-12-30T00:49:47.307Z,12.82
2023-12-30T00:51:38.911Z,12.81
2023-12-30T00:53:30.519Z,12.84
2023-12-30T00:55:22.329Z,12.88
2023-12-30T00:57:13.941Z,12.95
2023-12-30T00:59:05.696Z,12.94
2023-12-30T01:00:57.629Z,12.98
2023-12-30T01:02:49.347Z,13.00
2023-12-30T01:04:40.911Z,13.01
2023-12-30T01:06:32.349Z,13.03
2023-12-30T01:08:24.186Z,13.03
2023-12-30T01:10:17.868Z,13.02
2023-12-30T01:12:09.520Z,13.02
2023-12-30T01:14:01.397Z,13.00
2023-12-30T01:15:53.158Z,12.98
2023-12-30T01:17:47.527Z,13.05
2023-12-30T01:19:39.238Z,13.06
2023-12-30T01:21:30.638Z,13.13
2023-12-30T01:23:22.494Z,13.11
2023-12-30T01:25:14.269Z,13.17
2023-12-30T01:27:05.867Z,13.14
2023-12-30T01:28:57.387Z,13.09
2023-12-30T01:30:49.201Z,13.11
2023-12-30T01:32:40.861Z,13.14
2023-12-30T01:34:32.328Z,13.08
2023-12-30T01:36:23.785Z,13.08
2023-12-30T01:38:15.539Z,12.99
2023-12-30T01:40:07.762Z,13.02
2023-12-30T01:41:59.737Z,12.98
2023-12-30T01:43:51.175Z,12.94
2023-12-30T01:45:43.725Z,12.93
2023-12-30T01:47:38.240Z,12.92
2023-12-30T01:49:29.738Z,12.86
2023-12-30T01:51:25.116Z,12.88
2023-12-30T01:53:19.568Z,12.81
2023-12-30T01:55:10.858Z,12.77
2023-12-30T01:57:03.949Z,12.73
2023-12-30T01:58:55.857Z,12.75
2023-12-30T02:00:53.237Z,12.72
2023-12-30T02:02:44.819Z,12.71
2023-12-30T02:04:36.620Z,12.66
2023-12-30T02:06:28.092Z,12.66
2023-12-30T02:08:21.043Z,12.68
2023-12-30T02:10:13.023Z,12.68
2023-12-30T02:12:05.452Z,12.67
2023-12-30T02:13:56.913Z,12.65
2023-12-30T02:15:48.513Z,12.68
2023-12-30T02:17:40.302Z,12.60
2023-12-30T02:19:34.172Z,12.60
2023-12-30T02:21:25.596Z,12.55
2023-12-30T02:23:17.413Z,12.57
2023-12-30T02:25:09.324Z,12.57
2023-12-30T02:27:01.188Z,12.58
2023-12-30T02:28:52.909Z,12.56
2023-12-30T02:30:44.384Z,12.55
2023-12-30T02:32:36.254Z,12.60
2023-12-30T02:34:28.805Z,12.64
2023-12-30T02:36:21.382Z,12.62
2023-12-30T02:38:12.472Z,12.62
2023-12-30T02:40:04.132Z,12.61
2023-12-30T02:41:55.470Z,12.59
2023-12-30T02:44:02.144Z,12.57
2023-12-30T02:45:53.487Z,12.62
2023-12-30T02:47:45.324Z,12.64
2023-12-30T02:49:36.904Z,12.65
2023-12-30T02:51:28.537Z,12.69
2023-12-30T02:53:20.132Z,12.67
2023-12-30T02:55:11.745Z,12.68
2023-12-30T02:57:04.121Z,12.67
2023-12-30T02:59:02.727Z,12.69
2023-12-30T03:00:54.148Z,12.73
2023-12-30T03:02:45.934Z,12.75
2023-12-30T03:04:37.353Z,12.74
2023-12-30T03:06:29.041Z,12.69
2023-12-30T03:08:20.337Z,12.73
2023-12-30T03:10:12.128Z,12.66
2023-12-30T03:12:03.778Z,12.64
2023-12-30T03:13:55.111Z,12.61
2023-12-30T03:15:46.351Z,12.57
2023-12-30T03:17:38.114Z,12.55
2023-12-30T03:19:29.410Z,12.48
2023-12-30T03:21:21.116Z,12.45
2023-12-30T03:23:12.918Z,12.43
2023-12-30T03:25:05.106Z,12.41
2023-12-30T03:26:56.857Z,12.39
2023-12-30T03:28:48.776Z,12.34
2023-12-30T03:30:40.517Z,12.31
2023-12-30T03:32:32.329Z,12.25
2023-12-30T03:34:24.811Z,12.23
2023-12-30T03:36:16.484Z,12.28
2023-12-30T03:38:07.808Z,12.30
2023-12-30T03:39:59.744Z,12.32
2023-12-30T03:41:51.022Z,12.35
2023-12-30T03:43:42.809Z,12.38
2023-12-30T03:45:34.426Z,12.47
2023-12-30T03:47:25.687Z,12.49
2023-12-30T03:49:17.246Z,12.54
2023-12-30T03:51:08.638Z,12.56
2023-12-30T03:53:00.109Z,12.57
2023-12-30T03:54:53.482Z,12.62
2023-12-30T03:56:44.898Z,12.64
2023-12-30T03:58:36.696Z,12.67
2023-12-30T04:00:27.987Z,12.70
2023-12-30T04:02:22.219Z,12.73
2023-12-30T04:04:14.309Z,12.76
2023-12-30T04:06:06.069Z,12.80
2023-12-30T04:07:57.853Z,12.78
2023-12-30T04:09:49.490Z,12.77
2023-12-30T04:11:41.058Z,12.82
2023-12-30T04:13:32.575Z,12.92
2023-12-30T04:15:24.368Z,12.89
2023-12-30T04:17:15.630Z,12.86
2023-12-30T04:19:07.255Z,12.91
2023-12-30T04:20:58.530Z,12.88
2023-12-30T04:22:49.897Z,12.88
2023-12-30T04:24:41.231Z,12.80
2023-12-30T04:26:32.420Z,12.84
2023-12-30T04:28:23.697Z,12.82
2023-12-30T04:30:15.048Z,12.83
2023-12-30T04:32:07.305Z,12.88
2023-12-30T04:33:59.411Z,12.84
2023-12-30T04:35:51.105Z,12.86
2023-12-30T04:37:42.345Z,12.89
2023-12-30T04:39:34.022Z,12.90
2023-12-30T04:41:25.306Z,12.92
2023-12-30T04:43:16.965Z,12.90
2023-12-30T04:45:13.643Z,12.84
2023-12-30T04:47:05.535Z,12.78
2023-12-30T04:48:57.007Z,12.74
2023-12-30T04:50:48.825Z,12.57
2023-12-30T04:52:41.292Z,12.50
2023-12-30T04:54:33.306Z,12.43
2023-12-30T04:56:24.451Z,12.37
2023-12-30T04:58:17.420Z,12.32
2023-12-30T05:00:09.069Z,12.24
2023-12-30T05:02:00.551Z,12.14
2023-12-30T05:03:52.275Z,12.05
2023-12-30T05:05:44.300Z,11.96
2023-12-30T05:07:36.003Z,11.85
2023-12-30T05:09:27.562Z,11.80
2023-12-30T05:11:18.961Z,11.73
2023-12-30T05:13:10.462Z,11.66
2023-12-30T05:15:02.305Z,11.62
2023-12-30T05:16:53.916Z,11.57
2023-12-30T05:18:45.302Z,11.56
2023-12-30T05:20:37.511Z,11.56
2023-12-30T05:22:29.289Z,11.57
2023-12-30T05:24:21.028Z,11.55
2023-12-30T05:26:15.342Z,11.54
2023-12-30T05:28:07.270Z,11.51
2023-12-30T05:29:58.795Z,11.46
2023-12-30T05:31:50.475Z,11.42
2023-12-30T05:33:41.985Z,11.38
2023-12-30T05:35:34.396Z,11.34
2023-12-30T05:37:26.136Z,11.30
2023-12-30T05:39:17.784Z,11.25
2023-12-30T05:41:09.724Z,11.21
2023-12-30T05:43:01.773Z,11.20
2023-12-30T05:44:53.159Z,11.14
2023-12-30T05:46:44.783Z,11.13
2023-12-30T05:48:36.415Z,11.10
2023-12-30T05:50:28.908Z,11.08
2023-12-30T05:52:20.555Z,11.07
2023-12-30T05:54:12.348Z,11.08
2023-12-30T05:56:04.296Z,11.01
2023-12-30T05:57:55.767Z,11.00
2023-12-30T05:59:47.401Z,11.01
2023-12-30T06:01:48.075Z,11.02
2023-12-30T06:03:39.584Z,10.95
2023-12-30T06:05:31.306Z,10.90
2023-12-30T06:07:23.003Z,10.86
2023-12-30T06:09:14.910Z,10.78
2023-12-30T06:11:06.650Z,10.78
2023-12-30T06:12:58.153Z,10.73
2023-12-30T06:14:49.928Z,10.74
2023-12-30T06:16:41.395Z,10.71
2023-12-30T06:18:33.439Z,10.66
2023-12-30T06:20:25.226Z,10.64
2023-12-30T06:22:17.030Z,10.60
2023-12-30T06:24:08.850Z,10.61
2023-12-30T06:26:03.526Z,10.70
2023-12-30T06:27:55.172Z,10.69
2023-12-30T06:29:48.397Z,10.82
2023-12-30T06:31:41.854Z,10.92
2023-12-30T06:33:33.232Z,10.96
2023-12-30T06:35:24.991Z,11.05
2023-12-30T06:37:16.101Z,11.00
2023-12-30T06:39:07.709Z,11.02
2023-12-30T06:40:59.029Z,11.14
2023-12-30T06:42:50.267Z,11.13
2023-12-30T06:44:41.778Z,11.25
2023-12-30T06:46:34.863Z,11.25
2023-12-30T06:48:26.196Z,11.16
2023-12-30T06:50:20.526Z,11.19
2023-12-30T06:52:13.386Z,11.34
2023-12-30T06:54:06.720Z,11.42
2023-12-30T06:56:04.917Z,11.51
2023-12-30T06:57:56.677Z,11.62
2023-12-30T06:59:48.127Z,11.61
2023-12-30T07:01:41.417Z,11.61
2023-12-30T07:03:33.598Z,11.36
2023-12-30T07:05:25.148Z,11.17
2023-12-30T07:07:16.836Z,10.99
2023-12-30T07:09:08.509Z,10.85
2023-12-30T07:11:00.337Z,10.71
2023-12-30T07:12:51.779Z,10.63
2023-12-30T07:14:43.587Z,10.49
2023-12-30T07:16:35.211Z,10.51
2023-12-30T07:18:26.522Z,10.43
2023-12-30T07:20:18.178Z,10.42
2023-12-30T07:22:09.847Z,10.36
2023-12-30T07:24:01.213Z,10.32
2023-12-30T07:25:52.443Z,10.28
2023-12-30T07:27:43.996Z,10.26
2023-12-30T07:29:35.789Z,10.24
2023-12-30T07:31:27.421Z,10.24
2023-12-30T07:33:19.248Z,10.25
2023-12-30T07:35:11.046Z,10.21
2023-12-30T07:37:03.052Z,10.19
2023-12-30T07:38:54.666Z,10.14
2023-12-30T07:40:46.234Z,10.12
2023-12-30T07:42:37.886Z,10.15
2023-12-30T07:44:30.244Z,10.15
2023-12-30T07:46:22.489Z,10.08
2023-12-30T07:48:13.593Z,10.06
2023-12-30T07:50:06.323Z,10.12
2023-12-30T07:52:01.103Z,10.18
2023-12-30T07:53:53.506Z,10.17
2023-12-30T07:55:45.391Z,10.13
2023-12-30T07:57:37.166Z,10.17
2023-12-30T07:59:28.686Z,10.14
2023-12-30T08:01:20.578Z,10.12
2023-12-30T08:03:12.459Z,10.12
2023-12-30T08:05:04.320Z,10.09
2023-12-30T08:06:56.834Z,10.09
2023-12-30T08:08:48.606Z,10.12
2023-12-30T08:10:39.964Z,10.08
2023-12-30T08:12:31.731Z,10.00
2023-12-30T08:14:22.764Z,9.96
2023-12-30T08:16:14.164Z,9.92
2023-12-30T08:18:06.042Z,9.86
2023-12-30T08:19:58.214Z,9.84
2023-12-30T08:21:49.798Z,9.82
2023-12-30T08:23:41.109Z,9.89
2023-12-30T08:25:32.847Z,9.95
2023-12-30T08:27:24.576Z,9.97
2023-12-30T08:29:16.558Z,10.03
2023-12-30T08:31:07.922Z,10.07
2023-12-30T08:33:05.613Z,10.10
2023-12-30T08:34:58.638Z,10.14
2023-12-30T08:36:49.996Z,10.27
2023-12-30T08:38:41.676Z,10.41
2023-12-30T08:40:36.723Z,10.71
2023-12-30T08:42:35.419Z,10.80
2023-12-30T08:44:28.054Z,10.99
2023-12-30T08:46:19.930Z,11.14
2023-12-30T08:48:11.968Z,11.18
2023-12-30T08:50:05.242Z,11.38
2023-12-30T08:51:56.563Z,11.54
2023-12-30T08:53:48.311Z,11.59
2023-12-30T08:55:40.101Z,11.77
2023-12-30T08:57:32.016Z,11.66
2023-12-30T08:59:25.268Z,11.55
2023-12-30T09:01:16.966Z,11.51
2023-12-30T09:03:08.583Z,11.45
2023-12-30T09:05:00.414Z,11.28
2023-12-30T09:06:54.294Z,11.27
2023-12-30T09:08:45.615Z,11.26
2023-12-30T09:10:37.067Z,11.23
2023-12-30T09:12:28.317Z,11.19
2023-12-30T09:14:20.876Z,11.19
2023-12-30T09:16:12.880Z,11.17
2023-12-30T09:18:06.127Z,11.10
2023-12-30T09:19:57.801Z,11.11
2023-12-30T09:21:49.144Z,11.15
2023-12-30T09:23:40.459Z,11.11
2023-12-30T09:25:32.585Z,11.05
2023-12-30T09:27:24.025Z,11.04
2023-12-30T09:29:15.271Z,11.10
2023-12-30T09:31:06.745Z,11.00
2023-12-30T09:32:58.459Z,11.00
2023-12-30T09:34:50.147Z,10.97
2023-12-30T09:36:41.700Z,10.97
2023-12-30T09:38:33.427Z,11.05
2023-12-30T09:40:25.176Z,11.03
2023-12-30T09:42:17.266Z,11.03
2023-12-30T09:44:10.969Z,11.08
2023-12-30T09:46:05.655Z,11.14
2023-12-30T09:47:58.817Z,11.08
2023-12-30T09:49:51.230Z,11.13
2023-12-30T09:51:42.861Z,11.21
2023-12-30T09:53:34.585Z,11.27
2023-12-30T09:55:26.250Z,11.27
2023-12-30T09:57:17.885Z,11.31
2023-12-30T09:59:09.857Z,11.38
2023-12-30T10:01:01.595Z,11.42
2023-12-30T10:02:53.852Z,11.51
2023-12-30T10:04:46.089Z,11.64
2023-12-30T10:06:38.574Z,12.07
2023-12-30T10:08:30.273Z,12.41
2023-12-30T10:10:47.603Z,12.70
2023-12-30T10:12:39.927Z,13.06
2023-12-30T10:14:31.200Z,13.28
2023-12-30T10:16:23.002Z,13.53
2023-12-30T10:18:16.588Z,13.85
2023-12-30T10:20:11.464Z,13.94
2023-12-30T10:22:03.797Z,14.09
2023-12-30T10:23:55.966Z,14.26
2023-12-30T10:25:47.324Z,14.29
2023-12-30T10:27:39.466Z,14.31
2023-12-30T10:29:39.838Z,14.29
2023-12-30T10:31:38.237Z,14.20
2023-12-30T10:33:30.680Z,14.06
2023-12-30T10:35:24.108Z,13.81
2023-12-30T10:37:15.917Z,13.64
2023-12-30T10:39:07.832Z,13.58
2023-12-30T10:40:59.387Z,13.50
2023-12-30T10:42:50.961Z,13.47
2023-12-30T10:44:43.501Z,13.38
2023-12-30T10:46:35.408Z,13.33
2023-12-30T10:48:34.723Z,13.18
2023-12-30T10:50:27.546Z,13.05
2023-12-30T10:52:24.618Z,12.90
2023-12-30T10:54:22.506Z,12.91
2023-12-30T10:56:17.571Z,12.78
2023-12-30T10:58:21.602Z,12.72
2023-12-30T11:00:16.021Z,12.73
2023-12-30T11:02:07.491Z,12.69
2023-12-30T11:03:59.537Z,12.70
2023-12-30T11:06:00.599Z,12.65
2023-12-30T11:07:52.222Z,12.67
2023-12-30T11:09:44.147Z,12.63
2023-12-30T11:11:40.696Z,12.51
2023-12-30T11:13:39.754Z,12.59
2023-12-30T11:15:33.207Z,12.64
2023-12-30T11:17:36.946Z,12.59
2023-12-30T11:19:30.887Z,12.53
2023-12-30T11:21:45.446Z,12.54
2023-12-30T11:23:37.827Z,12.56
2023-12-30T11:25:43.122Z,12.57
2023-12-30T11:27:34.697Z,12.57
2023-12-30T11:29:27.945Z,12.60
2023-12-30T11:31:19.588Z,12.61
2023-12-30T11:33:15.343Z,12.56
2023-12-30T11:35:07.257Z,12.49
2023-12-30T11:36:59.957Z,12.50
2023-12-30T11:38:53.890Z,12.52
2023-12-30T11:40:53.539Z,12.51
2023-12-30T11:42:48.440Z,12.48
2023-12-30T11:44:40.569Z,12.49
2023-12-30T11:46:32.670Z,12.59
2023-12-30T11:48:24.554Z,12.54
2023-12-30T11:50:16.221Z,12.59
2023-12-30T11:52:09.187Z,12.57
2023-12-30T11:54:16.058Z,12.51
2023-12-30T11:56:09.139Z,12.49
2023-12-30T11:58:01.524Z,12.41
2023-12-30T11:59:52.929Z,12.43
2023-12-30T12:01:48.145Z,12.44
2023-12-30T12:03:41.112Z,12.38
2023-12-30T12:05:34.637Z,12.42
2023-12-30T12:07:26.348Z,12.46
2023-12-30T12:09:18.152Z,12.44
2023-12-30T12:11:10.027Z,12.44
2023-12-30T12:13:04.517Z,12.45
2023-12-30T12:14:56.570Z,12.47
2023-12-30T12:16:47.830Z,12.52
2023-12-30T12:18:41.718Z,12.49
2023-12-30T12:20:39.982Z,12.48
2023-12-30T12:22:31.956Z,12.43
2023-12-30T12:24:23.297Z,12.45
2023-12-30T12:26:15.038Z,12.45
2023-12-30T12:28:10.890Z,12.36
2023-12-30T12:30:02.534Z,12.44
2023-12-30T12:31:53.942Z,12.44
2023-12-30T12:33:45.638Z,12.45
2023-12-30T12:35:37.193Z,12.44
2023-12-30T12:37:28.818Z,12.45
2023-12-30T12:39:20.405Z,12.45
2023-12-30T12:41:11.836Z,12.47
2023-12-30T12:43:03.579Z,12.53
2023-12-30T12:44:55.412Z,12.50
2023-12-30T12:46:46.989Z,12.43
2023-12-30T12:48:39.441Z,12.41
2023-12-30T12:50:32.448Z,12.42
2023-12-30T12:52:24.138Z,12.37
2023-12-30T12:54:15.648Z,12.37
2023-12-30T12:56:07.503Z,12.38
2023-12-30T12:57:59.610Z,12.38
2023-12-30T12:59:51.471Z,12.40
2023-12-30T13:01:44.040Z,12.45
2023-12-30T13:03:35.779Z,12.41
2023-12-30T13:05:27.286Z,12.38
2023-12-30T13:07:18.977Z,12.38
2023-12-30T13:09:42.538Z,12.36
2023-12-30T13:11:34.464Z,12.36
2023-12-30T13:13:25.843Z,12.37
2023-12-30T13:15:20.973Z,12.34
2023-12-30T13:17:14.756Z,12.34
2023-12-30T13:19:06.542Z,12.40
2023-12-30T13:20:58.998Z,12.41
2023-12-30T13:22:56.558Z,12.42
2023-12-30T13:24:49.040Z,12.40
2023-12-30T13:26:40.725Z,12.34
2023-12-30T13:28:32.948Z,12.29
2023-12-30T13:30:24.841Z,12.31
2023-12-30T13:32:16.624Z,12.15
2023-12-30T13:34:08.625Z,12.25
2023-12-30T13:36:00.630Z,12.29
2023-12-30T13:37:56.489Z,12.28
2023-12-30T13:39:47.809Z,12.24
2023-12-30T13:41:40.461Z,12.18
2023-12-30T13:43:32.701Z,12.24
2023-12-30T13:45:24.376Z,12.22
2023-12-30T13:47:36.112Z,12.20
2023-12-30T13:49:53.015Z,12.18
2023-12-30T13:51:49.802Z,12.14
2023-12-30T13:53:41.240Z,12.16
2023-12-30T13:55:34.342Z,12.17
2023-12-30T13:57:28.641Z,12.25
2023-12-30T13:59:20.305Z,12.28
2023-12-30T14:01:11.918Z,12.20
2023-12-30T14:03:05.409Z,12.21
2023-12-30T14:04:58.274Z,12.21
2023-12-30T14:06:49.940Z,12.20
2023-12-30T14:08:44.262Z,12.18
2023-12-30T14:10:35.983Z,12.19
2023-12-30T14:12:28.640Z,12.16
2023-12-30T14:14:22.049Z,12.12
2023-12-30T14:16:14.906Z,12.12
2023-12-30T14:18:06.610Z,12.14
2023-12-30T14:20:00.102Z,12.07
2023-12-30T14:21:52.249Z,11.98
2023-12-30T14:23:44.429Z,11.80
2023-12-30T14:25:36.434Z,11.78
2023-12-30T14:27:28.391Z,11.62
2023-12-30T14:29:19.908Z,11.58
2023-12-30T14:31:14.126Z,11.53
2023-12-30T14:33:06.669Z,11.51
2023-12-30T14:34:59.659Z,11.39
2023-12-30T14:36:51.469Z,11.41
2023-12-30T14:38:42.842Z,11.43
2023-12-30T14:40:35.418Z,11.36
2023-12-30T14:42:27.561Z,11.32
2023-12-30T14:44:19.365Z,11.33
2023-12-30T14:46:12.866Z,11.29
2023-12-30T14:48:05.316Z,11.36
2023-12-30T14:49:56.661Z,11.38
2023-12-30T14:51:48.690Z,11.42
2023-12-30T14:53:40.736Z,11.36
2023-12-30T14:55:33.250Z,11.37
2023-12-30T14:57:24.724Z,11.36
2023-12-30T14:59:16.527Z,11.30
2023-12-30T15:01:08.588Z,11.36
2023-12-30T15:03:01.331Z,11.37
2023-12-30T15:04:53.074Z,11.33
2023-12-30T15:06:44.737Z,11.32
2023-12-30T15:08:36.286Z,11.25
2023-12-30T15:10:27.441Z,11.25
2023-12-30T15:12:22.821Z,11.18
2023-12-30T15:14:14.291Z,11.15
2023-12-30T15:16:06.180Z,11.10
2023-12-30T15:17:57.880Z,11.08
2023-12-30T15:19:50.002Z,11.03
2023-12-30T15:21:41.705Z,11.00
2023-12-30T15:23:33.806Z,11.00
2023-12-30T15:25:25.838Z,10.99
2023-12-30T15:27:17.177Z,10.93
2023-12-30T15:29:08.992Z,10.93
2023-12-30T15:31:02.406Z,10.91
2023-12-30T15:32:56.174Z,10.88
2023-12-30T15:34:48.357Z,10.91
2023-12-30T15:36:40.189Z,10.89
2023-12-30T15:38:34.606Z,10.85
2023-12-30T15:40:25.780Z,10.87
2023-12-30T15:42:17.795Z,10.81
2023-12-30T15:44:08.927Z,10.77
2023-12-30T15:46:00.677Z,10.76
2023-12-30T15:47:52.857Z,10.70
2023-12-30T15:49:44.717Z,10.65
2023-12-30T15:51:36.076Z,10.62
2023-12-30T15:53:27.389Z,10.58
2023-12-30T15:55:18.976Z,10.55
2023-12-30T15:57:10.533Z,10.49
2023-12-30T15:59:02.211Z,10.46
2023-12-30T16:00:53.785Z,10.42
2023-12-30T16:02:47.226Z,10.35
2023-12-30T16:04:39.390Z,10.28
2023-12-30T16:06:31.034Z,10.21
2023-12-30T16:08:22.585Z,10.16
2023-12-30T16:10:15.848Z,10.12
2023-12-30T16:12:08.333Z,10.09
2023-12-30T16:13:59.930Z,10.08
2023-12-30T16:15:53.912Z,10.04
2023-12-30T16:17:45.668Z,10.00
2023-12-30T16:19:38.586Z,9.99
2023-12-30T16:21:30.938Z,9.95
2023-12-30T16:23:22.359Z,9.98
2023-12-30T16:25:13.771Z,9.95
2023-12-30T16:27:05.359Z,9.96
2023-12-30T16:28:58.547Z,9.97
2023-12-30T16:30:50.132Z,9.92
2023-12-30T16:32:41.984Z,9.87
2023-12-30T16:34:34.079Z,9.85
2023-12-30T16:36:28.585Z,9.84
2023-12-30T16:38:20.280Z,9.84
2023-12-30T16:40:11.814Z,9.83
2023-12-30T16:42:03.466Z,9.79
2023-12-30T16:43:55.018Z,9.76
2023-12-30T16:45:47.126Z,9.78
2023-12-30T16:47:40.140Z,9.74
2023-12-30T16:49:32.118Z,9.74
2023-12-30T16:51:23.569Z,9.73
2023-12-30T16:53:14.789Z,9.75
2023-12-30T16:55:11.828Z,9.70
2023-12-30T16:57:03.975Z,9.65
2023-12-30T16:58:55.576Z,9.56
2023-12-30T17:00:48.516Z,9.47
2023-12-30T17:02:40.029Z,9.44
2023-12-30T17:04:32.088Z,9.35
2023-12-30T17:06:23.609Z,9.27
2023-12-30T17:08:15.274Z,9.19
2023-12-30T17:10:07.705Z,9.12
2023-12-30T17:11:59.946Z,9.06
2023-12-30T17:13:54.113Z,9.00
2023-12-30T17:15:45.770Z,8.97
2023-12-30T17:17:37.461Z,8.93
2023-12-30T17:19:29.367Z,8.89
2023-12-30T17:21:21.135Z,8.82
2023-12-30T17:23:12.656Z,8.80
2023-12-30T17:25:04.832Z,8.80
2023-12-30T17:26:56.417Z,8.82
2023-12-30T17:28:48.005Z,8.78
2023-12-30T17:30:39.506Z,8.80
2023-12-30T17:32:31.646Z,8.78
2023-12-30T17:34:23.378Z,8.74
2023-12-30T17:36:17.371Z,8.73
2023-12-30T17:38:09.404Z,8.72
2023-12-30T17:40:00.831Z,8.70
2023-12-30T17:41:52.874Z,8.69
2023-12-30T17:43:44.344Z,8.67
2023-12-30T17:45:36.048Z,8.62
2023-12-30T17:47:27.954Z,8.63
2023-12-30T17:49:19.690Z,8.61
2023-12-30T17:51:11.242Z,8.61
2023-12-30T17:53:03.310Z,8.61
2023-12-30T17:54:57.559Z,8.58
2023-12-30T17:56:49.868Z,8.54
2023-12-30T17:58:42.105Z,8.52
2023-12-30T18:00:33.891Z,8.51
2023-12-30T18:02:25.446Z,8.50
2023-12-30T18:04:17.210Z,8.46
2023-12-30T18:06:09.098Z,8.45
2023-12-30T18:08:00.741Z,8.43
2023-12-30T18:09:52.775Z,8.41
2023-12-30T18:11:44.902Z,8.41
2023-12-30T18:13:36.294Z,8.45
2023-12-30T18:15:28.745Z,8.45
2023-12-30T18:17:20.502Z,8.44
2023-12-30T18:19:12.327Z,8.43
2023-12-30T18:21:04.843Z,8.41
2023-12-30T18:22:56.178Z,8.41
2023-12-30T18:24:47.841Z,8.40
2023-12-30T18:26:39.735Z,8.40
2023-12-30T18:28:31.263Z,8.39
2023-12-30T18:30:23.058Z,8.33
2023-12-30T18:32:14.768Z,8.33
2023-12-30T18:34:06.219Z,8.31
2023-12-30T18:35:57.745Z,8.30
2023-12-30T18:37:50.833Z,8.33
2023-12-30T18:39:42.364Z,8.29
2023-12-30T18:41:34.972Z,8.24
2023-12-30T18:43:26.432Z,8.22
2023-12-30T18:45:18.386Z,8.18
2023-12-30T18:47:09.763Z,8.18
2023-12-30T18:49:01.739Z,8.22
2023-12-30T18:50:53.124Z,8.18
2023-12-30T18:52:51.173Z,8.16
2023-12-30T18:54:42.438Z,8.11
2023-12-30T18:56:34.093Z,8.10
2023-12-30T18:58:26.030Z,8.10
2023-12-30T19:00:21.641Z,8.11
2023-12-30T19:02:13.308Z,8.15
2023-12-30T19:04:05.200Z,8.19
2023-12-30T19:05:57.128Z,8.19
2023-12-30T19:07:48.462Z,8.21
2023-12-30T19:09:40.154Z,8.24
2023-12-30T19:11:32.099Z,8.27
2023-12-30T19:13:23.951Z,8.31
2023-12-30T19:15:15.613Z,8.26
2023-12-30T19:17:07.689Z,8.27
2023-12-30T19:18:59.890Z,8.28
2023-12-30T19:20:51.807Z,8.34
2023-12-30T19:22:44.277Z,8.36
2023-12-30T19:24:38.237Z,8.40
2023-12-30T19:26:29.886Z,8.46
2023-12-30T19:28:21.562Z,8.47
2023-12-30T19:30:14.163Z,8.44
2023-12-30T19:32:06.109Z,8.45
2023-12-30T19:33:57.909Z,8.51
2023-12-30T19:35:49.737Z,8.52
2023-12-30T19:37:43.683Z,8.55
2023-12-30T19:39:38.135Z,8.57
2023-12-30T19:41:29.883Z,8.61
2023-12-30T19:43:22.618Z,8.60
2023-12-30T19:45:14.622Z,8.63
2023-12-30T19:47:06.246Z,8.62
2023-12-30T19:48:57.655Z,8.61
2023-12-30T19:50:49.215Z,8.64
2023-12-30T19:52:40.705Z,8.65
2023-12-30T19:54:32.241Z,8.59
2023-12-30T19:56:25.469Z,8.55
2023-12-30T19:58:16.982Z,8.53
2023-12-30T20:00:09.890Z,8.50
2023-12-30T20:02:01.511Z,8.51
2023-12-30T20:03:53.727Z,8.48
2023-12-30T20:05:45.945Z,8.46
2023-12-30T20:07:37.595Z,8.44
2023-12-30T20:09:29.208Z,8.39
2023-12-30T20:11:20.420Z,8.33
2023-12-30T20:13:11.780Z,8.28
2023-12-30T20:15:09.707Z,8.24
2023-12-30T20:17:02.221Z,8.19
2023-12-30T20:18:54.097Z,8.13
2023-12-30T20:20:45.741Z,8.11
2023-12-30T20:22:37.695Z,8.09
2023-12-30T20:24:29.321Z,8.02
2023-12-30T20:26:20.954Z,7.95
2023-12-30T20:28:13.534Z,7.92
2023-12-30T20:30:06.019Z,7.94
2023-12-30T20:31:57.863Z,7.93
2023-12-30T20:33:49.227Z,7.95
2023-12-30T20:35:40.760Z,7.96
2023-12-30T20:37:32.061Z,7.97
2023-12-30T20:39:23.761Z,7.95
2023-12-30T20:41:15.586Z,7.92
2023-12-30T20:43:07.465Z,7.90
2023-12-30T20:44:58.877Z,7.86
2023-12-30T20:46:50.997Z,7.85
2023-12-30T20:48:43.823Z,7.84
2023-12-30T20:50:37.968Z,7.81
2023-12-30T20:52:29.637Z,7.74
2023-12-30T20:54:21.416Z,7.65
2023-12-30T20:56:13.130Z,7.57
2023-12-30T20:58:04.671Z,7.51
2023-12-30T20:59:56.090Z,7.52
2023-12-30T21:01:48.232Z,7.48
2023-12-30T21:03:41.257Z,7.41
2023-12-30T21:05:34.377Z,7.33
2023-12-30T21:07:26.222Z,7.29
2023-12-30T21:09:18.220Z,7.28
2023-12-30T21:11:09.613Z,7.19
2023-12-30T21:13:01.293Z,7.15
2023-12-30T21:14:53.218Z,7.20
2023-12-30T21:16:46.306Z,7.23
2023-12-30T21:18:38.087Z,7.24
2023-12-30T21:20:29.284Z,7.22
2023-12-30T21:22:20.495Z,7.15
2023-12-30T21:24:11.816Z,7.13
2023-12-30T21:26:05.541Z,7.13
2023-12-30T21:27:57.162Z,7.14
2023-12-30T21:29:48.821Z,7.13
2023-12-30T21:31:43.825Z,7.11
2023-12-30T21:33:37.281Z,7.09
2023-12-30T21:35:28.678Z,7.07
2023-12-30T21:37:19.968Z,7.04
2023-12-30T21:39:13.275Z,6.98
2023-12-30T21:41:05.749Z,6.98
2023-12-30T21:42:57.399Z,6.95
2023-12-30T21:44:50.480Z,6.93
2023-12-30T21:46:45.775Z,6.92
2023-12-30T21:48:37.621Z,6.92
2023-12-30T21:50:29.186Z,6.92
2023-12-30T21:52:21.449Z,6.86
2023-12-30T21:54:13.954Z,6.80
2023-12-30T21:56:05.599Z,6.78
2023-12-30T21:57:57.072Z,6.77
2023-12-30T21:59:48.683Z,6.74
2023-12-30T22:01:40.060Z,6.71
2023-12-30T22:03:31.696Z,6.67
2023-12-30T22:05:23.524Z,6.64
2023-12-30T22:07:15.329Z,6.63
2023-12-30T22:09:07.134Z,6.64
2023-12-30T22:10:58.616Z,6.62
2023-12-30T22:12:50.412Z,6.57
2023-12-30T22:14:41.760Z,6.52
2023-12-30T22:16:33.540Z,6.49
2023-12-30T22:18:25.409Z,6.47
2023-12-30T22:20:17.076Z,6.47
2023-12-30T22:22:09.456Z,6.47
2023-12-30T22:24:01.265Z,6.44
2023-12-30T22:25:52.564Z,6.42
2023-12-30T22:27:46.006Z,6.28
2023-12-30T22:29:37.861Z,6.21
2023-12-30T22:31:29.686Z,6.17
2023-12-30T22:33:21.393Z,6.16
2023-12-30T22:35:16.541Z,6.15
2023-12-30T22:37:08.173Z,6.16
2023-12-30T22:38:59.791Z,6.19
2023-12-30T22:40:51.215Z,6.14
2023-12-30T22:42:42.721Z,6.16
2023-12-30T22:44:37.730Z,6.21
2023-12-30T22:46:30.020Z,6.15
2023-12-30T22:48:23.028Z,6.16
2023-12-30T22:50:14.357Z,6.17
2023-12-30T22:52:06.326Z,6.21
2023-12-30T22:53:58.218Z,6.22
2023-12-30T22:55:49.912Z,6.24
2023-12-30T22:57:42.097Z,6.27
2023-12-30T22:59:33.682Z,6.34
2023-12-30T23:01:25.581Z,6.44
2023-12-30T23:03:17.913Z,6.50
2023-12-30T23:05:09.937Z,6.56
2023-12-30T23:07:01.233Z,6.57
2023-12-30T23:08:52.857Z,6.57
2023-12-30T23:10:44.729Z,6.61
2023-12-30T23:12:36.368Z,6.62
2023-12-30T23:14:27.952Z,6.63
2023-12-30T23:16:19.741Z,6.65
2023-12-30T23:18:11.478Z,6.66
2023-12-30T23:20:04.519Z,6.65
2023-12-30T23:21:55.950Z,6.67
2023-12-30T23:23:47.223Z,6.68
2023-12-30T23:25:38.489Z,6.67
2023-12-30T23:27:30.156Z,6.66
2023-12-30T23:29:22.040Z,6.65
2023-12-30T23:31:13.621Z,6.60
2023-12-30T23:33:05.547Z,6.55
2023-12-30T23:34:57.390Z,6.56
2023-12-30T23:36:48.735Z,6.58
2023-12-30T23:38:40.461Z,6.59
2023-12-30T23:40:31.916Z,6.64
2023-12-30T23:42:23.332Z,6.68
2023-12-30T23:44:15.116Z,6.66
2023-12-30T23:46:06.797Z,6.66
2023-12-30T23:47:58.516Z,6.68
2023-12-30T23:49:50.155Z,6.70
2023-12-30T23:51:41.976Z,6.64
2023-12-30T23:53:33.407Z,6.64
2023-12-30T23:55:24.653Z,6.68
2023-12-30T23:57:16.499Z,6.71
2023-12-30T23:59:07.943Z,6.72
